createdAt,value
2018-02-12T00:00:36.910Z,3.90
2018-02-12T00:03:04.371Z,3.80
2018-02-12T00:05:31.812Z,3.80
2018-02-12T00:08:00.042Z,3.80
2018-02-12T00:10:27.503Z,3.80
2018-02-12T00:12:54.949Z,3.80
2018-02-12T00:15:22.407Z,3.80
2018-02-12T00:17:49.868Z,3.80
2018-02-12T00:20:17.331Z,3.80
2018-02-12T00:22:44.776Z,3.80
2018-02-12T00:25:12.994Z,3.80
2018-02-12T00:27:40.518Z,3.80
2018-02-12T00:30:08.748Z,3.70
2018-02-12T00:32:36.204Z,3.70
2018-02-12T00:35:03.659Z,3.70
2018-02-12T00:37:31.244Z,3.70
2018-02-12T00:39:58.698Z,3.70
2018-02-12T00:42:26.144Z,3.70
2018-02-12T00:44:53.598Z,3.70
2018-02-12T00:47:21.051Z,3.70
2018-02-12T00:49:48.501Z,3.70
2018-02-12T00:52:16.722Z,3.60
2018-02-12T00:54:44.176Z,3.60
2018-02-12T00:57:11.627Z,3.70
2018-02-12T00:59:39.092Z,3.70
2018-02-12T01:02:06.550Z,3.70
2018-02-12T01:04:33.999Z,3.70
2018-02-12T01:07:01.456Z,3.70
2018-02-12T01:09:29.666Z,3.70
2018-02-12T01:11:57.118Z,3.70
2018-02-12T01:14:24.579Z,3.60
2018-02-12T01:16:52.051Z,3.60
2018-02-12T01:19:19.503Z,3.50
2018-02-12T01:21:46.951Z,3.50
2018-02-12T01:24:15.155Z,3.40
2018-02-12T01:26:42.614Z,3.40
2018-02-12T01:29:10.074Z,3.50
2018-02-12T01:31:37.496Z,3.40
2018-02-12T01:34:04.963Z,3.40
2018-02-12T01:36:33.181Z,3.40
2018-02-12T01:39:00.837Z,3.40
2018-02-12T01:41:28.274Z,3.40
2018-02-12T01:43:56.522Z,3.40
2018-02-12T01:46:23.996Z,3.40
2018-02-12T01:48:51.451Z,3.50
2018-02-12T01:51:18.917Z,3.50
2018-02-12T01:53:46.387Z,3.40
2018-02-12T01:56:13.829Z,3.40
2018-02-12T01:58:41.275Z,3.40
2018-02-12T02:01:08.751Z,3.40
2018-02-12T02:03:36.165Z,3.40
2018-02-12T02:06:04.369Z,3.50
2018-02-12T02:08:31.822Z,3.50
2018-02-12T02:10:59.282Z,3.50
2018-02-12T02:13:26.743Z,3.50
2018-02-12T02:15:54.200Z,3.50
2018-02-12T02:18:22.426Z,3.50
2018-02-12T02:20:49.897Z,3.50
2018-02-12T02:23:18.099Z,3.50
2018-02-12T02:25:45.560Z,3.50
2018-02-12T02:28:13.011Z,3.50
2018-02-12T02:30:40.447Z,3.50
2018-02-12T02:33:07.890Z,3.40
2018-02-12T02:35:35.346Z,3.40
2018-02-12T02:38:02.828Z,3.40
2018-02-12T02:40:30.261Z,3.40
2018-02-12T02:42:57.717Z,3.50
2018-02-12T02:45:25.941Z,3.40
2018-02-12T02:47:53.389Z,3.50
2018-02-12T02:50:20.832Z,3.50
2018-02-12T02:52:48.278Z,3.50
2018-02-12T02:55:16.477Z,3.50
2018-02-12T02:57:43.925Z,3.50
2018-02-12T03:00:12.137Z,3.40
2018-02-12T03:02:39.598Z,3.40
2018-02-12T03:05:07.108Z,3.40
2018-02-12T03:07:34.536Z,3.50
2018-02-12T03:10:01.984Z,3.50
2018-02-12T03:12:29.431Z,3.40
2018-02-12T03:14:56.882Z,3.40
2018-02-12T03:17:25.112Z,3.30
2018-02-12T03:19:52.583Z,3.30
2018-02-12T03:22:20.027Z,3.30
2018-02-12T03:24:47.485Z,3.30
2018-02-12T03:27:14.923Z,3.30
2018-02-12T03:29:42.361Z,3.30
2018-02-12T03:32:10.593Z,3.30
2018-02-12T03:34:38.038Z,3.20
2018-02-12T03:37:05.477Z,3.30
2018-02-12T03:39:33.716Z,3.30
2018-02-12T03:42:01.187Z,3.30
2018-02-12T03:44:28.645Z,3.30
2018-02-12T03:46:56.090Z,3.40
2018-02-12T03:49:23.533Z,3.40
2018-02-12T03:51:50.993Z,3.40
2018-02-12T03:54:18.459Z,3.40
2018-02-12T03:56:45.910Z,3.40
2018-02-12T03:59:13.690Z,3.50
2018-02-12T04:01:41.124Z,3.40
2018-02-12T04:04:09.371Z,3.50
2018-02-12T04:06:36.825Z,3.50
2018-02-12T04:09:04.266Z,3.50
2018-02-12T04:11:31.720Z,3.50
2018-02-12T04:13:59.172Z,3.40
2018-02-12T04:16:26.625Z,3.50
2018-02-12T04:18:54.833Z,3.50
2018-02-12T04:21:22.271Z,3.50
2018-02-12T04:23:50.495Z,3.50
2018-02-12T04:26:17.943Z,3.50
2018-02-12T04:28:45.396Z,3.50
2018-02-12T04:31:12.841Z,3.50
2018-02-12T04:33:40.297Z,3.50
2018-02-12T04:36:08.513Z,3.50
2018-02-12T04:38:35.992Z,3.50
2018-02-12T04:41:03.440Z,3.50
2018-02-12T04:43:30.903Z,3.50
2018-02-12T04:45:58.362Z,3.40
2018-02-12T04:48:25.815Z,3.40
2018-02-12T04:50:53.246Z,3.30
2018-02-12T04:53:21.467Z,3.40
2018-02-12T04:55:48.904Z,3.30
2018-02-12T04:58:16.354Z,3.30
2018-02-12T05:00:44.582Z,3.40
2018-02-12T05:03:12.042Z,3.40
2018-02-12T05:05:39.495Z,3.30
2018-02-12T05:08:06.955Z,3.30
2018-02-12T05:10:34.386Z,3.30
2018-02-12T05:13:02.603Z,3.30
2018-02-12T05:15:30.052Z,3.30
2018-02-12T05:17:58.257Z,3.40
2018-02-12T05:20:25.721Z,3.40
2018-02-12T05:22:53.184Z,3.40
2018-02-12T05:25:20.655Z,3.30
2018-02-12T05:27:48.117Z,3.40
2018-02-12T05:30:16.542Z,3.40
2018-02-12T05:32:44.770Z,3.30
2018-02-12T05:35:12.210Z,3.30
2018-02-12T05:37:39.638Z,3.20
2018-02-12T05:40:07.895Z,3.20
2018-02-12T05:42:35.333Z,3.20
2018-02-12T05:45:02.793Z,3.20
2018-02-12T05:47:30.267Z,3.10
2018-02-12T05:49:57.709Z,3.20
2018-02-12T05:52:25.164Z,3.10
2018-02-12T05:54:52.614Z,3.10
2018-02-12T05:57:20.052Z,3.20
2018-02-12T05:59:47.509Z,3.10
2018-02-12T06:02:14.966Z,3.10
2018-02-12T06:04:42.401Z,3.10
2018-02-12T06:07:09.843Z,3.10
2018-02-12T06:09:37.305Z,3.10
2018-02-12T06:12:04.762Z,3.10
2018-02-12T06:14:32.983Z,3.10
2018-02-12T06:17:00.504Z,3.00
2018-02-12T06:19:27.958Z,3.00
2018-02-12T06:21:55.683Z,3.00
2018-02-12T06:24:23.198Z,3.00
2018-02-12T06:26:50.654Z,2.90
2018-02-12T06:29:18.107Z,2.90
2018-02-12T06:31:46.335Z,2.80
2018-02-12T06:34:13.799Z,2.80
2018-02-12T06:36:41.253Z,2.80
2018-02-12T06:39:08.698Z,2.70
2018-02-12T06:41:36.148Z,2.70
2018-02-12T06:44:03.585Z,2.80
2018-02-12T06:46:31.807Z,2.70
2018-02-12T06:48:59.253Z,2.70
2018-02-12T06:51:26.741Z,2.80
2018-02-12T06:53:54.205Z,2.80
2018-02-12T06:56:21.648Z,2.90
2018-02-12T06:58:49.096Z,2.90
2018-02-12T07:01:16.537Z,2.90
2018-02-12T07:03:43.995Z,2.90
2018-02-12T07:06:11.483Z,2.80
2018-02-12T07:08:39.708Z,2.70
2018-02-12T07:11:07.155Z,2.60
2018-02-12T07:13:34.601Z,2.60
2018-02-12T07:16:02.802Z,2.50
2018-02-12T07:18:30.259Z,2.50
2018-02-12T07:20:58.471Z,2.40
2018-02-12T07:23:25.910Z,2.40
2018-02-12T07:25:53.355Z,2.40
2018-02-12T07:28:20.803Z,2.40
2018-02-12T07:30:48.225Z,2.40
2018-02-12T07:33:16.448Z,2.40
2018-02-12T07:35:43.892Z,2.40
2018-02-12T07:38:12.117Z,2.40
2018-02-12T07:40:39.560Z,2.50
2018-02-12T07:43:07.002Z,2.50
2018-02-12T07:45:35.220Z,2.80
2018-02-12T07:48:03.419Z,2.80
2018-02-12T07:50:30.875Z,2.80
2018-02-12T07:52:58.341Z,2.90
2018-02-12T07:55:25.794Z,2.90
2018-02-12T07:57:53.347Z,3.00
2018-02-12T08:00:20.796Z,3.00
2018-02-12T08:02:48.267Z,3.10
2018-02-12T08:05:15.698Z,3.20
2018-02-12T08:07:43.900Z,3.20
2018-02-12T08:10:11.356Z,3.20
2018-02-12T08:12:38.775Z,3.20
2018-02-12T08:15:06.215Z,3.20
2018-02-12T08:17:33.657Z,3.20
2018-02-12T08:20:01.101Z,3.30
2018-02-12T08:22:28.561Z,3.50
2018-02-12T08:24:56.775Z,3.50
2018-02-12T08:27:24.241Z,3.50
2018-02-12T08:29:51.695Z,3.50
2018-02-12T08:32:19.148Z,3.50
2018-02-12T08:34:46.575Z,3.50
2018-02-12T08:37:15.024Z,3.60
2018-02-12T08:42:10.402Z,3.60
2018-02-12T08:44:38.681Z,3.20
2018-02-12T08:47:06.910Z,3.10
2018-02-12T08:49:34.345Z,3.10
2018-02-12T08:52:01.824Z,3.10
2018-02-12T08:54:29.281Z,3.20
2018-02-12T08:56:56.747Z,3.20
2018-02-12T08:59:24.203Z,3.30
2018-02-12T09:01:51.659Z,3.20
2018-02-12T09:04:19.103Z,3.30
2018-02-12T09:06:47.311Z,3.20
2018-02-12T09:09:14.782Z,3.20
2018-02-12T09:11:42.236Z,3.10
2018-02-12T09:14:09.696Z,3.10
2018-02-12T09:16:37.150Z,3.10
2018-02-12T09:19:04.602Z,3.00
2018-02-12T09:21:32.826Z,3.20
2018-02-12T09:24:00.262Z,3.20
2018-02-12T09:26:27.698Z,3.30
2018-02-12T09:28:55.926Z,3.70
2018-02-12T09:31:23.404Z,3.70
2018-02-12T09:33:50.854Z,3.80
2018-02-12T09:36:18.310Z,3.80
2018-02-12T09:38:46.522Z,3.80
2018-02-12T09:41:13.957Z,3.80
2018-02-12T09:43:41.422Z,3.70
2018-02-12T09:46:08.864Z,3.60
2018-02-12T09:48:36.331Z,3.50
2018-02-12T09:51:03.790Z,3.50
2018-02-12T09:53:31.282Z,3.50
2018-02-12T09:55:58.737Z,3.60
2018-02-12T09:58:26.193Z,3.70
2018-02-12T10:00:53.640Z,3.90
2018-02-12T10:03:21.078Z,4.10
2018-02-12T10:05:49.291Z,4.30
2018-02-12T10:08:16.740Z,4.20
2018-02-12T10:10:44.205Z,4.10
2018-02-12T10:13:11.659Z,3.50
2018-02-12T10:15:39.112Z,3.30
2018-02-12T10:18:07.349Z,2.90
2018-02-12T10:20:34.814Z,2.90
2018-02-12T10:23:04.022Z,2.80
2018-02-12T10:25:29.733Z,2.80
2018-02-12T10:27:57.188Z,2.80
2018-02-12T10:30:24.657Z,2.70
2018-02-12T10:32:52.142Z,2.60
2018-02-12T10:35:19.592Z,2.50
2018-02-12T10:37:47.031Z,2.50
2018-02-12T10:40:14.491Z,2.50
2018-02-12T10:42:42.714Z,2.30
2018-02-12T10:45:10.193Z,2.30
2018-02-12T10:47:38.410Z,2.00
2018-02-12T10:50:05.854Z,1.90
2018-02-12T10:52:33.299Z,1.90
2018-02-12T10:55:01.522Z,2.00
2018-02-12T10:57:28.953Z,2.00
2018-02-12T10:59:56.414Z,2.10
2018-02-12T11:02:23.849Z,2.10
2018-02-12T11:04:51.300Z,2.30
2018-02-12T11:07:18.762Z,2.60
2018-02-12T11:09:46.218Z,2.80
2018-02-12T11:12:13.670Z,2.80
2018-02-12T11:14:41.137Z,2.90
2018-02-12T11:17:08.611Z,3.10
2018-02-12T11:19:36.129Z,3.40
2018-02-12T11:22:03.597Z,3.70
2018-02-12T11:24:31.043Z,3.80
2018-02-12T11:26:58.565Z,4.00
2018-02-12T11:29:26.017Z,4.00
2018-02-12T11:31:53.468Z,3.90
2018-02-12T11:34:20.922Z,3.80
2018-02-12T11:36:48.345Z,3.70
2018-02-12T11:39:16.593Z,3.70
2018-02-12T11:41:44.061Z,3.70
2018-02-12T11:44:11.512Z,3.60
2018-02-12T11:46:38.968Z,3.50
2018-02-12T11:49:06.421Z,3.40
2018-02-12T11:51:33.904Z,3.40
2018-02-12T11:54:01.350Z,3.30
2018-02-12T11:56:29.265Z,3.40
2018-02-12T11:58:57.479Z,3.40
2018-02-12T12:01:24.937Z,3.40
2018-02-12T12:03:52.389Z,3.60
2018-02-12T12:06:19.839Z,3.60
2018-02-12T12:08:48.056Z,4.00
2018-02-12T12:11:15.525Z,4.00
2018-02-12T12:13:43.739Z,3.70
2018-02-12T12:16:11.210Z,3.70
2018-02-12T12:18:38.666Z,3.70
2018-02-12T12:21:06.127Z,3.70
2018-02-12T12:23:33.576Z,3.70
2018-02-12T12:26:01.046Z,3.60
2018-02-12T12:28:28.519Z,3.60
2018-02-12T12:30:55.970Z,3.60
2018-02-12T12:33:23.422Z,3.60
2018-02-12T12:35:50.880Z,3.40
2018-02-12T12:38:18.334Z,3.40
2018-02-12T12:40:45.776Z,3.40
2018-02-12T12:43:13.223Z,3.30
2018-02-12T12:45:40.686Z,3.30
2018-02-12T12:48:08.904Z,3.40
2018-02-12T12:50:36.372Z,3.40
2018-02-12T12:53:03.798Z,3.50
2018-02-12T12:55:31.267Z,3.40
2018-02-12T12:57:58.695Z,3.40
2018-02-12T13:00:26.156Z,3.50
2018-02-12T13:02:53.610Z,3.40
2018-02-12T13:05:21.059Z,3.40
2018-02-12T13:07:48.505Z,3.40
2018-02-12T13:10:15.977Z,3.50
2018-02-12T13:12:43.427Z,3.50
2018-02-12T13:15:10.868Z,3.50
2018-02-12T13:17:38.323Z,3.50
2018-02-12T13:20:06.538Z,3.40
2018-02-12T13:22:33.965Z,3.40
2018-02-12T13:25:01.425Z,3.50
2018-02-12T13:27:28.873Z,3.50
2018-02-12T13:29:57.078Z,3.60
2018-02-12T13:32:24.522Z,3.60
2018-02-12T13:34:52.728Z,3.40
2018-02-12T13:37:20.239Z,3.50
2018-02-12T13:39:47.701Z,3.50
2018-02-12T13:42:15.149Z,3.50
2018-02-12T13:44:42.605Z,3.50
2018-02-12T13:47:10.077Z,3.40
2018-02-12T13:49:37.541Z,3.40
2018-02-12T13:52:04.996Z,3.40
2018-02-12T13:54:32.475Z,3.50
2018-02-12T13:56:59.932Z,3.60
2018-02-12T13:59:27.378Z,3.50
2018-02-12T14:01:54.831Z,3.50
2018-02-12T14:04:22.275Z,3.50
2018-02-12T14:06:49.738Z,3.40
2018-02-12T14:09:17.214Z,3.40
2018-02-12T14:11:44.678Z,3.40
2018-02-12T14:14:12.111Z,3.50
2018-02-12T14:16:39.563Z,3.50
2018-02-12T14:19:07.804Z,3.60
2018-02-12T14:21:35.265Z,3.50
2018-02-12T14:24:02.722Z,3.50
2018-02-12T14:26:30.179Z,3.50
2018-02-12T14:28:57.630Z,3.50
2018-02-12T14:31:25.251Z,3.50
2018-02-12T14:33:52.681Z,3.40
2018-02-12T14:36:20.133Z,3.50
2018-02-12T14:38:47.582Z,3.50
2018-02-12T14:41:15.034Z,3.40
2018-02-12T14:43:42.469Z,3.40
2018-02-12T14:46:10.695Z,3.50
2018-02-12T14:48:38.159Z,3.50
2018-02-12T14:51:05.609Z,3.40
2018-02-12T14:53:33.065Z,3.50
2018-02-12T14:56:00.523Z,3.40
2018-02-12T14:58:28.746Z,3.40
2018-02-12T15:00:56.210Z,3.40
2018-02-12T15:03:23.705Z,3.40
2018-02-12T15:05:51.983Z,3.30
2018-02-12T15:08:20.250Z,3.30
2018-02-12T15:10:47.698Z,3.30
2018-02-12T15:13:15.136Z,3.30
2018-02-12T15:15:43.349Z,3.30
2018-02-12T15:18:10.829Z,3.30
2018-02-12T15:20:38.224Z,3.20
2018-02-12T15:23:05.675Z,3.20
2018-02-12T15:25:33.149Z,3.20
2018-02-12T15:28:00.583Z,3.20
2018-02-12T15:30:28.802Z,3.20
2018-02-12T15:32:56.252Z,3.20
2018-02-12T15:35:23.700Z,3.20
2018-02-12T15:37:51.152Z,3.20
2018-02-12T15:40:19.370Z,3.20
2018-02-12T15:42:47.821Z,3.20
2018-02-12T15:45:16.045Z,3.10
2018-02-12T15:47:43.517Z,3.10
2018-02-12T15:50:10.984Z,3.20
2018-02-12T15:52:38.506Z,3.20
2018-02-12T15:55:05.917Z,3.20
2018-02-12T15:57:33.375Z,3.20
2018-02-12T16:00:00.834Z,3.20
2018-02-12T16:02:28.277Z,3.30
2018-02-12T16:04:55.728Z,3.30
2018-02-12T16:07:23.194Z,3.30
2018-02-12T16:09:50.650Z,3.30
2018-02-12T16:12:18.091Z,3.30
2018-02-12T16:14:46.321Z,3.30
2018-02-12T16:17:13.757Z,3.30
2018-02-12T16:19:41.221Z,3.20
2018-02-12T16:22:08.677Z,3.20
2018-02-12T16:24:36.117Z,3.20
2018-02-12T16:27:03.577Z,3.10
2018-02-12T16:29:31.783Z,3.10
2018-02-12T16:31:59.267Z,3.10
2018-02-12T16:34:26.715Z,3.00
2018-02-12T16:36:54.169Z,3.00
2018-02-12T16:39:21.628Z,3.00
2018-02-12T16:41:49.078Z,3.00
2018-02-12T16:44:17.294Z,3.00
2018-02-12T16:46:44.759Z,3.00
2018-02-12T16:49:12.212Z,3.00
2018-02-12T16:51:39.658Z,3.00
2018-02-12T16:54:07.112Z,3.00
2018-02-12T16:56:35.308Z,3.00
2018-02-12T16:59:02.771Z,3.00
2018-02-12T17:01:30.214Z,3.00
2018-02-12T17:03:58.441Z,3.00
2018-02-12T17:06:25.871Z,3.00
2018-02-12T17:08:53.377Z,3.00
2018-02-12T17:11:20.835Z,3.00
2018-02-12T17:13:48.281Z,3.00
2018-02-12T17:16:15.728Z,3.00
2018-02-12T17:18:43.178Z,2.90
2018-02-12T17:21:11.405Z,2.90
2018-02-12T17:23:38.858Z,2.90
2018-02-12T17:26:06.314Z,2.80
2018-02-12T17:28:33.772Z,2.80
2018-02-12T17:31:01.227Z,2.80
2018-02-12T17:33:28.688Z,2.70
2018-02-12T17:35:56.151Z,2.80
2018-02-12T17:38:23.603Z,2.80
2018-02-12T17:40:51.046Z,2.80
2018-02-12T17:43:19.316Z,2.80
2018-02-12T17:45:47.526Z,2.80
2018-02-12T17:48:14.998Z,2.70
2018-02-12T17:50:43.032Z,2.80
2018-02-12T17:53:10.505Z,2.80
2018-02-12T17:55:38.710Z,2.80
2018-02-12T17:58:06.192Z,2.80
2018-02-12T18:00:33.663Z,2.80
2018-02-12T18:03:01.119Z,2.90
2018-02-12T18:05:28.588Z,2.80
2018-02-12T18:07:56.027Z,2.80
2018-02-12T18:10:23.486Z,2.80
2018-02-12T18:12:50.929Z,2.80
2018-02-12T18:15:19.142Z,2.80
2018-02-12T18:17:46.601Z,2.80
2018-02-12T18:20:14.060Z,2.80
2018-02-12T18:22:41.517Z,2.90
2018-02-12T18:25:08.955Z,2.90
2018-02-12T18:27:37.181Z,3.00
2018-02-12T18:30:04.626Z,3.00
2018-02-12T18:32:32.072Z,3.00
2018-02-12T18:34:59.518Z,3.00
2018-02-12T18:37:27.729Z,3.00
2018-02-12T18:39:55.187Z,3.00
2018-02-12T18:42:22.635Z,3.00
2018-02-12T18:44:50.873Z,2.90
2018-02-12T18:47:18.318Z,2.90
2018-02-12T18:49:45.756Z,3.00
2018-02-12T18:52:13.711Z,2.90
2018-02-12T18:54:41.960Z,2.90
2018-02-12T18:57:09.407Z,2.90
2018-02-12T18:59:37.613Z,2.90
2018-02-12T19:02:05.065Z,2.90
2018-02-12T19:04:32.503Z,2.90
2018-02-12T19:07:00.743Z,2.80
2018-02-12T19:09:28.961Z,2.80
2018-02-12T19:11:56.460Z,2.80
2018-02-12T19:14:23.949Z,2.80
2018-02-12T19:16:51.638Z,2.80
2018-02-12T19:19:19.096Z,2.80
2018-02-12T19:21:47.331Z,2.80
2018-02-12T19:24:15.579Z,2.90
2018-02-12T19:26:43.017Z,2.90
2018-02-12T19:29:10.461Z,2.90
2018-02-12T19:31:38.678Z,2.80
2018-02-12T19:34:06.142Z,2.80
2018-02-12T19:36:33.602Z,2.70
2018-02-12T19:39:01.081Z,2.70
2018-02-12T19:41:28.565Z,2.70
2018-02-12T19:43:56.022Z,2.60
2018-02-12T19:46:23.482Z,2.60
2018-02-12T19:48:51.200Z,2.60
2018-02-12T19:51:18.650Z,2.50
2018-02-12T19:53:46.867Z,2.40
2018-02-12T19:56:14.354Z,2.40
2018-02-12T19:58:41.801Z,2.40
2018-02-12T20:01:09.263Z,2.50
2018-02-12T20:03:36.710Z,2.40
2018-02-12T20:06:04.180Z,2.40
2018-02-12T20:08:31.662Z,2.30
2018-02-12T20:10:59.128Z,2.30
2018-02-12T20:13:26.567Z,2.30
2018-02-12T20:15:54.037Z,2.30
2018-02-12T20:18:21.485Z,2.30
2018-02-12T20:20:48.948Z,2.30
2018-02-12T20:23:16.415Z,2.30
2018-02-12T20:25:43.903Z,2.30
2018-02-12T20:28:12.121Z,2.30
2018-02-12T20:30:40.337Z,2.30
2018-02-12T20:33:07.798Z,2.30
2018-02-12T20:35:35.282Z,2.30
2018-02-12T20:38:02.757Z,2.30
2018-02-12T20:40:30.215Z,2.30
2018-02-12T20:42:57.674Z,2.30
2018-02-12T20:45:25.115Z,2.30
2018-02-12T20:47:52.596Z,2.30
2018-02-12T20:50:20.069Z,2.30
2018-02-12T20:52:47.521Z,2.20
2018-02-12T20:55:14.982Z,2.30
2018-02-12T20:57:42.422Z,2.20
2018-02-12T21:00:09.881Z,2.20
2018-02-12T21:02:37.330Z,2.20
2018-02-12T21:05:04.789Z,2.20
2018-02-12T21:07:32.234Z,2.10
2018-02-12T21:10:00.467Z,2.10
2018-02-12T21:12:27.926Z,2.10
2018-02-12T21:14:55.374Z,2.20
2018-02-12T21:17:22.871Z,2.20
2018-02-12T21:19:50.401Z,2.20
2018-02-12T21:22:17.941Z,2.20
2018-02-12T21:24:46.163Z,2.20
2018-02-12T21:27:13.673Z,2.20
2018-02-12T21:29:41.875Z,2.20
2018-02-12T21:32:09.324Z,2.20
2018-02-12T21:34:37.556Z,2.10
2018-02-12T21:37:04.989Z,2.10
2018-02-12T21:39:32.555Z,2.20
2018-02-12T21:42:00.011Z,2.10
2018-02-12T21:44:27.469Z,2.10
2018-02-12T21:46:54.907Z,2.10
2018-02-12T21:49:23.136Z,2.10
2018-02-12T21:51:50.644Z,2.10
2018-02-12T21:54:18.115Z,2.00
2018-02-12T21:56:46.348Z,2.00
2018-02-12T21:59:13.804Z,2.00
2018-02-12T22:01:41.258Z,2.00
2018-02-12T22:04:08.685Z,2.00
2018-02-12T22:06:36.929Z,2.00
2018-02-12T22:09:04.393Z,1.90
2018-02-12T22:11:31.843Z,1.90
2018-02-12T22:13:59.318Z,1.90
2018-02-12T22:16:26.776Z,2.00
2018-02-12T22:18:54.228Z,2.00
2018-02-12T22:21:21.681Z,2.00
2018-02-12T22:23:49.122Z,2.00
2018-02-12T22:26:17.378Z,1.90
2018-02-12T22:28:46.424Z,1.80
2018-02-12T22:31:13.863Z,1.80
2018-02-12T22:33:41.298Z,1.90
2018-02-12T22:36:08.791Z,1.80
2018-02-12T22:38:36.241Z,1.80
2018-02-12T22:41:04.476Z,1.80
2018-02-12T22:43:32.689Z,1.80
2018-02-12T22:46:00.167Z,1.70
2018-02-12T22:48:28.397Z,1.80
2018-02-12T22:50:55.832Z,1.80
2018-02-12T22:53:23.304Z,1.80
2018-02-12T22:55:50.755Z,1.70
2018-02-12T22:58:18.233Z,1.70
2018-02-12T23:00:45.839Z,1.70
2018-02-12T23:03:13.291Z,1.70
2018-02-12T23:05:40.817Z,1.70
2018-02-12T23:08:08.280Z,1.70
2018-02-12T23:10:35.743Z,1.70
2018-02-12T23:13:03.208Z,1.60
2018-02-12T23:15:33.615Z,1.60
2018-02-12T23:18:01.099Z,1.60
2018-02-12T23:20:28.579Z,1.60
2018-02-12T23:22:56.042Z,1.60
2018-02-12T23:25:23.482Z,1.50
2018-02-12T23:27:50.946Z,1.60
2018-02-12T23:30:18.380Z,1.50
2018-02-12T23:32:46.590Z,1.60
2018-02-12T23:35:14.051Z,1.60
2018-02-12T23:37:41.498Z,1.50
2018-02-12T23:40:09.692Z,1.50
2018-02-12T23:42:37.148Z,1.50
2018-02-12T23:45:04.620Z,1.50
2018-02-12T23:47:32.074Z,1.50
2018-02-12T23:49:59.531Z,1.50
2018-02-12T23:52:27.736Z,1.40
2018-02-12T23:54:55.223Z,1.40
2018-02-12T23:57:22.689Z,1.50
2018-02-12T23:59:51.074Z,1.40
